Terminal Aerodrome Forecast
Issued by NWS Paducah, KY

Home | Current Version | Previous Version | Graphics & Text | Print | Product List | Glossary On
Versions: 1 2 3 4 5 6 7 8 9 10 11 12 13 14 15 16 17 18 19 20 21 22 23 24 25 26 27 28 29 30
744
FTUS43 KPAH 201120
TAFPAH
TAF
KPAH 201120Z 2012/2112 19004KT P6SM SCT120
     FM201800 18003KT P6SM VCTS FEW040CB
     FM202100 VRB02KT P6SM SCT045 BKN250 PROB30 2021/2103 4SM TSRA
      BKN045CB=

USA.gov is the U.S. government's official web portal to all federal, state and local government web resources and services.